Time;durP1;ratioP1;P1;durP2;ratioP2;P2;SDS_P1;SDS_P2;PMS_P1;PMS_P2;Temp;Humidity;BMP_temperature;BMP_pressure;BME280_temperature;BME280_humidity;BME280_pressure;Samples;Min_cycle;Max_cycle;Signal;HPM_P1;HPM_P2
2023/08/26 00:01:52;;;;;;;0.37;0.37;;;;;;;25.59;61.36;99526.22;4311446;33;33657;-89
2023/08/26 00:04:21;;;;;;;1.15;0.98;;;;;;;25.55;60.98;99527.56;4315202;33;33487;-89
2023/08/26 00:06:49;;;;;;;0.98;0.77;;;;;;;25.61;60.73;99523.34;4329365;32;34562;-89
2023/08/26 00:09:25;;;;;;;1.05;0.95;;;;;;;25.58;60.91;99529.91;4302581;33;33111;-89
2023/08/26 00:11:54;;;;;;;0.45;0.45;;;;;;;25.88;59.60;99530.28;4310720;32;33103;-89
2023/08/26 00:14:21;;;;;;;0.45;0.45;;;;;;;25.78;59.77;99525.91;4300482;32;33205;-89
2023/08/26 00:16:49;;;;;;;2.17;1.45;;;;;;;25.44;61.24;99523.34;4305457;33;33623;-89
2023/08/26 00:19:17;;;;;;;8.23;1.40;;;;;;;25.46;61.33;99513.22;4336902;32;32744;-89
2023/08/26 00:21:45;;;;;;;2.67;0.85;;;;;;;25.48;61.28;99529.25;4320971;33;33620;-88
2023/08/26 00:24:20;;;;;;;0.40;0.40;;;;;;;25.53;61.15;99516.91;4292419;33;32322;-89
2023/08/26 00:26:48;;;;;;;1.08;0.70;;;;;;;25.49;61.20;99512.00;4310269;33;34188;-89
2023/08/26 00:29:16;;;;;;;1.10;0.90;;;;;;;25.47;61.30;99512.19;4292267;33;33101;-89
2023/08/26 00:31:43;;;;;;;0.85;0.82;;;;;;;25.47;61.40;99514.06;4306463;33;33355;-91
2023/08/26 00:34:18;;;;;;;0.85;0.85;;;;;;;25.34;62.01;99525.38;4331595;32;32241;-91
2023/08/26 00:36:49;;;;;;;1.37;1.27;;;;;;;25.49;61.29;99520.13;4315524;32;32934;-91
2023/08/26 00:39:17;;;;;;;0.40;0.32;;;;;;;25.71;60.49;99521.31;4329390;33;33209;-90
2023/08/26 00:41:46;;;;;;;0.52;0.52;;;;;;;25.38;61.68;99523.19;4324613;32;35461;-90
2023/08/26 00:44:14;;;;;;;3.05;0.77;;;;;;;25.39;61.83;99519.44;4331482;32;34114;-91
2023/08/26 00:46:42;;;;;;;1.55;1.02;;;;;;;25.38;61.85;99520.47;4343718;32;33191;-90
2023/08/26 00:49:10;;;;;;;0.93;0.68;;;;;;;25.29;62.32;99525.88;4338206;32;34033;-90
2023/08/26 00:51:37;;;;;;;0.40;0.40;;;;;;;25.35;62.13;99518.94;4320270;33;32630;-90
2023/08/26 00:54:07;;;;;;;2.85;0.93;;;;;;;25.29;62.28;99515.06;4312923;33;32632;-90
2023/08/26 00:56:35;;;;;;;0.88;0.88;;;;;;;25.27;62.56;99533.31;4335792;32;32557;-89
2023/08/26 00:59:03;;;;;;;0.50;0.50;;;;;;;25.48;61.69;99535.50;4330214;32;33301;-90
2023/08/26 01:01:31;;;;;;;0.80;0.75;;;;;;;25.73;60.68;99546.31;4306966;33;34147;-89
2023/08/26 01:03:59;;;;;;;1.05;0.95;;;;;;;25.85;60.85;99552.25;4323811;32;33752;-89
2023/08/26 01:06:27;;;;;;;1.87;0.65;;;;;;;25.79;61.16;99549.22;4359611;32;33480;-89
2023/08/26 01:08:55;;;;;;;0.65;0.65;;;;;;;25.33;62.63;99561.53;4356626;32;34343;-89
2023/08/26 01:11:31;;;;;;;0.62;0.62;;;;;;;25.30;62.90;99564.53;4354797;32;34336;-89
2023/08/26 01:14:10;;;;;;;0.47;0.43;;;;;;;25.16;63.64;99557.97;4303022;32;31571;-89
2023/08/26 01:16:39;;;;;;;0.55;0.55;;;;;;;25.08;63.91;99554.41;4311470;32;32327;-89
2023/08/26 01:19:16;;;;;;;2.00;1.20;;;;;;;25.05;63.96;99558.22;4312026;33;33232;-90
2023/08/26 01:21:44;;;;;;;0.30;0.30;;;;;;;25.23;63.42;99552.72;4296113;33;33036;-90
2023/08/26 01:24:13;;;;;;;1.75;1.08;;;;;;;25.25;63.17;99556.09;4304701;33;34323;-90
2023/08/26 01:26:41;;;;;;;0.47;0.47;;;;;;;25.32;62.93;99554.44;4300685;32;32467;-91
2023/08/26 01:29:09;;;;;;;2.67;1.23;;;;;;;25.53;61.98;99543.09;4307024;33;32887;-90
2023/08/26 01:31:38;;;;;;;0.80;0.80;;;;;;;25.38;62.40;99550.22;4314833;33;34682;-91
2023/08/26 01:34:17;;;;;;;0.70;0.70;;;;;;;25.21;63.06;99555.59;4327527;32;32067;-91
2023/08/26 01:36:46;;;;;;;1.15;0.95;;;;;;;25.25;63.04;99551.53;4280242;33;33434;-90
2023/08/26 01:39:15;;;;;;;0.90;0.90;;;;;;;25.21;63.05;99547.50;4295983;33;35376;-91
2023/08/26 01:41:49;;;;;;;0.77;0.77;;;;;;;25.40;62.39;99550.87;4297738;33;32452;-90
2023/08/26 01:44:18;;;;;;;0.68;0.62;;;;;;;25.17;63.66;99531.78;4279742;33;32939;-90
2023/08/26 01:46:47;;;;;;;0.17;0.17;;;;;;;25.23;63.19;99537.34;4276286;33;33436;-90
2023/08/26 01:49:15;;;;;;;0.50;0.50;;;;;;;25.26;63.16;99520.81;4298284;33;33870;-90
2023/08/26 01:51:45;;;;;;;1.30;0.60;;;;;;;25.26;63.16;99514.56;4306392;33;33292;-89
2023/08/26 01:54:12;;;;;;;0.93;0.73;;;;;;;25.30;63.25;99526.72;4306742;33;31848;-89
2023/08/26 01:56:40;;;;;;;0.70;0.70;;;;;;;25.51;62.13;99526.22;4300747;33;33582;-90
2023/08/26 01:59:08;;;;;;;0.62;0.62;;;;;;;25.29;62.87;99527.72;4325205;32;33271;-90
2023/08/26 02:01:36;;;;;;;0.62;0.62;;;;;;;25.29;62.85;99525.88;4307433;32;32643;-89
2023/08/26 02:04:04;;;;;;;0.73;0.73;;;;;;;25.18;63.20;99528.91;4294628;33;32643;-90
2023/08/26 02:06:32;;;;;;;0.62;0.62;;;;;;;25.29;62.81;99531.28;4308437;33;33119;-91
2023/08/26 02:09:00;;;;;;;0.55;0.55;;;;;;;25.31;62.84;99527.59;4326965;32;33197;-91
2023/08/26 02:11:28;;;;;;;1.00;0.60;;;;;;;25.24;63.05;99528.22;4329570;32;32950;-92
2023/08/26 02:13:58;;;;;;;1.12;0.98;;;;;;;25.03;64.05;99517.88;4295710;32;33873;-90
2023/08/26 02:16:26;;;;;;;0.57;0.57;;;;;;;25.07;63.89;99504.94;4325649;33;32974;-90
2023/08/26 02:18:54;;;;;;;0.85;0.60;;;;;;;25.13;63.34;99501.56;4328881;32;33851;-88
2023/08/26 02:21:21;;;;;;;8.68;1.60;;;;;;;25.05;63.55;99496.09;4309127;33;32369;-88
2023/08/26 02:23:50;;;;;;;1.27;0.52;;;;;;;25.18;63.12;99499.19;4316649;33;31854;-88
2023/08/26 02:26:20;;;;;;;2.12;1.45;;;;;;;25.58;61.43;99502.03;4311702;33;34209;-90
2023/08/26 02:28:55;;;;;;;1.15;0.57;;;;;;;25.21;62.59;99506.09;4322731;33;34177;-90
2023/08/26 02:31:23;;;;;;;1.17;0.82;;;;;;;24.99;63.45;99510.28;4327238;32;33514;-90
2023/08/26 02:33:51;;;;;;;0.50;0.50;;;;;;;24.88;63.73;99499.81;4328773;33;32390;-89
2023/08/26 02:36:19;;;;;;;0.85;0.62;;;;;;;24.93;63.75;99500.16;4256600;33;33580;-90
2023/08/26 02:38:48;;;;;;;1.05;0.82;;;;;;;24.92;63.77;99498.44;4275953;33;33244;-90
2023/08/26 02:41:15;;;;;;;0.43;0.43;;;;;;;24.77;64.14;99507.19;4303653;33;33003;-89
2023/08/26 02:43:45;;;;;;;1.20;0.88;;;;;;;24.93;63.70;99502.84;4292927;33;32914;-90
2023/08/26 02:46:26;;;;;;;4.50;0.90;;;;;;;24.98;63.15;99495.09;4290306;33;33118;-90
2023/08/26 02:48:56;;;;;;;0.60;0.60;;;;;;;24.84;63.87;99495.75;4300994;33;32756;-90
2023/08/26 02:51:24;;;;;;;3.08;1.45;;;;;;;24.83;63.85;99504.84;4316205;33;34155;-92
2023/08/26 02:53:53;;;;;;;0.82;0.50;;;;;;;24.74;63.97;99498.59;4288544;33;32615;-91
2023/08/26 02:56:21;;;;;;;1.58;1.20;;;;;;;24.62;64.53;99503.44;4326947;32;33225;-88
2023/08/26 02:58:49;;;;;;;1.55;1.37;;;;;;;24.77;63.77;99504.50;4316034;32;32617;-87
2023/08/26 03:01:18;;;;;;;0.70;0.60;;;;;;;24.58;64.37;99504.78;4337659;32;33885;-88
2023/08/26 03:03:45;;;;;;;1.00;0.37;;;;;;;24.55;64.79;99499.72;4335743;32;31482;-87
2023/08/26 03:06:14;;;;;;;1.98;1.50;;;;;;;24.66;64.40;99499.41;4273809;33;33277;-87
2023/08/26 03:08:41;;;;;;;0.85;0.85;;;;;;;24.65;64.27;99508.53;4297606;33;33695;-87
2023/08/26 03:11:09;;;;;;;2.17;1.00;;;;;;;24.65;64.26;99505.81;4264417;33;33421;-89
2023/08/26 03:13:37;;;;;;;0.95;0.85;;;;;;;24.65;64.37;99499.59;4314815;32;33289;-88
2023/08/26 03:16:07;;;;;;;0.55;0.55;;;;;;;24.63;64.42;99502.44;4329878;33;34240;-88
2023/08/26 03:18:36;;;;;;;0.77;0.68;;;;;;;24.53;64.60;99496.31;4329478;33;33830;-88
2023/08/26 03:21:08;;;;;;;1.12;0.98;;;;;;;24.51;64.74;99498.34;4312578;32;34236;-87
2023/08/26 03:23:36;;;;;;;0.90;0.90;;;;;;;24.63;64.36;99501.59;4296073;33;33130;-88
2023/08/26 03:26:04;;;;;;;0.90;0.88;;;;;;;24.51;64.72;99501.06;4307494;32;34546;-89
2023/08/26 03:28:34;;;;;;;1.02;0.85;;;;;;;24.46;64.82;99500.72;4314465;32;32756;-89
2023/08/26 03:31:04;;;;;;;0.93;0.80;;;;;;;24.45;64.69;99504.38;4336547;32;33864;-88
2023/08/26 03:33:37;;;;;;;0.85;0.75;;;;;;;24.64;63.76;99506.84;4300359;32;32283;-88
2023/08/26 03:36:05;;;;;;;1.00;0.63;;;;;;;24.53;64.27;99496.31;4306823;33;32942;-89
2023/08/26 03:38:34;;;;;;;1.00;0.93;;;;;;;24.55;64.33;99505.13;4303547;33;33332;-89
2023/08/26 03:41:05;;;;;;;0.60;0.52;;;;;;;24.59;64.23;99506.47;4280439;33;33517;-89
2023/08/26 03:43:42;;;;;;;0.70;0.50;;;;;;;24.43;64.81;99503.72;4332747;32;32476;-88
2023/08/26 03:46:10;;;;;;;0.62;0.52;;;;;;;24.49;64.62;99500.34;4317950;32;33866;-89
2023/08/26 03:48:39;;;;;;;0.60;0.60;;;;;;;24.45;64.85;99505.25;4350942;32;33319;-89
2023/08/26 03:51:07;;;;;;;1.73;1.17;;;;;;;24.48;64.69;99504.06;4313716;33;33310;-89
2023/08/26 03:53:35;;;;;;;1.48;1.10;;;;;;;24.45;64.91;99501.69;4309352;33;33100;-89
2023/08/26 03:56:03;;;;;;;1.17;0.80;;;;;;;24.44;64.74;99491.91;4257928;33;33771;-89
2023/08/26 03:58:32;;;;;;;15.70;2.60;;;;;;;24.37;65.02;99494.44;4294567;33;32519;-89
2023/08/26 04:01:04;;;;;;;0.55;0.35;;;;;;;24.45;64.70;99491.78;4305502;33;34120;-89
2023/08/26 04:03:33;;;;;;;1.08;0.85;;;;;;;24.55;64.26;99493.47;4295534;33;32638;-89
2023/08/26 04:06:03;;;;;;;0.47;0.47;;;;;;;24.39;64.70;99488.84;4283632;33;33693;-89
2023/08/26 04:08:32;;;;;;;0.68;0.68;;;;;;;24.29;65.10;99494.34;4269503;33;34585;-88
2023/08/26 04:11:01;;;;;;;0.52;0.52;;;;;;;24.42;64.70;99493.94;4318638;33;32790;-88
2023/08/26 04:13:31;;;;;;;0.70;0.70;;;;;;;24.37;65.04;99497.13;4319767;33;32654;-88
2023/08/26 04:16:02;;;;;;;0.90;0.90;;;;;;;24.37;65.15;99496.28;4316717;33;34124;-88
2023/08/26 04:18:31;;;;;;;10.02;1.92;;;;;;;24.27;65.51;99499.91;4275052;33;33187;-89
2023/08/26 04:21:01;;;;;;;2.33;0.50;;;;;;;24.37;65.02;99501.69;4286107;33;33822;-88
2023/08/26 04:23:32;;;;;;;2.25;1.23;;;;;;;24.47;64.55;99499.69;4261458;33;34107;-88
2023/08/26 04:26:05;;;;;;;0.85;0.85;;;;;;;24.40;65.17;99506.72;4284830;33;32883;-92
2023/08/26 04:28:40;;;;;;;1.15;1.00;;;;;;;24.44;65.25;99513.50;4261239;33;32889;-90
2023/08/26 04:31:08;;;;;;;0.57;0.57;;;;;;;24.47;65.10;99513.19;4274793;33;32563;-91
2023/08/26 04:33:37;;;;;;;1.50;1.15;;;;;;;24.51;64.99;99509.16;4326721;32;32570;-90
2023/08/26 04:36:05;;;;;;;0.85;0.85;;;;;;;24.51;65.08;99507.28;4290468;33;32779;-90
2023/08/26 04:38:34;;;;;;;0.75;0.68;;;;;;;24.57;64.98;99500.41;4258414;33;33486;-91
2023/08/26 04:41:02;;;;;;;1.27;0.80;;;;;;;24.61;64.93;99509.84;4283548;33;34155;-90
2023/08/26 04:43:30;;;;;;;0.98;0.85;;;;;;;24.68;64.77;99505.47;4281003;33;32434;-89
2023/08/26 04:45:59;;;;;;;1.12;0.77;;;;;;;24.75;64.57;99506.53;4256402;33;34265;-89
2023/08/26 04:48:29;;;;;;;1.02;0.90;;;;;;;24.88;64.09;99510.63;4290491;33;32788;-90
2023/08/26 04:50:57;;;;;;;1.17;1.02;;;;;;;24.78;64.52;99510.72;4303833;33;33955;-90
2023/08/26 04:53:25;;;;;;;1.12;1.05;;;;;;;24.94;64.01;99512.63;4336224;32;33331;-89
2023/08/26 04:55:53;;;;;;;1.48;1.23;;;;;;;24.87;64.23;99520.53;4311637;33;33871;-89
2023/08/26 04:58:42;;;;;;;1.52;1.30;;;;;;;25.01;63.74;99510.94;4250832;33;33378;-90
2023/08/26 05:01:11;;;;;;;0.93;0.90;;;;;;;25.10;63.69;99509.12;4275928;33;33979;-87
2023/08/26 05:03:39;;;;;;;1.80;0.98;;;;;;;24.94;64.63;99515.34;4297962;33;32613;-87
2023/08/26 05:06:06;;;;;;;4.12;2.50;;;;;;;24.95;64.74;99503.53;4290630;33;34259;-87
2023/08/26 05:08:34;;;;;;;1.83;1.12;;;;;;;25.07;64.45;99512.13;4299258;33;33678;-88
2023/08/26 05:11:03;;;;;;;0.60;0.60;;;;;;;25.11;64.42;99516.22;4316714;33;33340;-88
2023/08/26 05:13:31;;;;;;;0.95;0.77;;;;;;;25.33;63.89;99507.47;4278789;33;31380;-89
2023/08/26 05:15:59;;;;;;;1.87;1.25;;;;;;;25.60;63.23;99503.56;4298170;33;32768;-89
2023/08/26 05:18:27;;;;;;;2.22;1.58;;;;;;;25.41;64.01;99503.94;4256994;33;34688;-89
2023/08/26 05:20:58;;;;;;;1.40;1.30;;;;;;;25.61;63.45;99502.56;4271478;33;105910;-89
2023/08/26 05:23:37;;;;;;;1.60;1.50;;;;;;;25.67;63.07;99496.44;4284744;32;33330;-89
2023/08/26 05:26:08;;;;;;;3.15;1.65;;;;;;;26.01;62.09;99503.50;4284324;33;33884;-90
2023/08/26 05:33:24;;;;;;;0.98;0.90;;;;;;;26.63;61.48;99503.63;4473084;32;33762;-89
2023/08/26 05:35:52;;;;;;;1.50;1.40;;;;;;;25.83;62.20;99505.59;4463729;32;32454;-90
2023/08/26 05:38:19;;;;;;;1.45;1.35;;;;;;;25.98;61.76;99509.28;4451064;32;33486;-89
2023/08/26 05:40:48;;;;;;;4.35;1.20;;;;;;;26.13;61.51;99496.72;4455312;32;34002;-90
2023/08/26 05:43:15;;;;;;;3.15;1.23;;;;;;;26.25;61.24;99505.28;4460796;31;34051;-89
2023/08/26 05:45:43;;;;;;;1.30;0.90;;;;;;;26.53;60.59;99509.25;4474823;32;33563;-89
2023/08/26 05:48:11;;;;;;;1.55;1.45;;;;;;;26.66;60.33;99518.69;4459015;32;33453;-91
2023/08/26 05:50:39;;;;;;;1.02;0.98;;;;;;;26.72;60.20;99518.81;4456125;32;32574;-88
2023/08/26 05:53:07;;;;;;;1.05;0.98;;;;;;;26.83;59.85;99516.75;4452898;32;32348;-88
2023/08/26 05:55:35;;;;;;;1.15;1.05;;;;;;;26.89;59.61;99505.19;4463414;32;33721;-88
2023/08/26 05:58:02;;;;;;;0.70;0.70;;;;;;;27.13;58.85;99510.47;4450159;32;33784;-88
2023/08/26 06:04:01;;;;;;;0.60;0.60;;;;;;;27.48;57.76;99517.12;4441242;32;31575;-88
2023/08/26 06:06:32;;;;;;;0.98;0.85;;;;;;;27.80;56.62;99524.16;4437041;32;33621;-87
2023/08/26 06:09:02;;;;;;;1.77;1.13;;;;;;;27.94;56.59;99524.34;4442415;32;33548;-88
2023/08/26 06:11:30;;;;;;;0.90;0.70;;;;;;;27.92;53.92;99529.16;4423346;32;33360;-88
2023/08/26 06:13:58;;;;;;;1.80;1.70;;;;;;;27.91;54.41;99522.84;4408759;32;33671;-89
2023/08/26 06:16:47;;;;;;;2.20;0.98;;;;;;;27.94;53.87;99525.19;4430046;32;32924;-89
2023/08/26 06:19:15;;;;;;;1.23;0.95;;;;;;;28.02;54.18;99527.84;4429086;32;33883;-88
2023/08/26 06:21:43;;;;;;;1.83;1.73;;;;;;;28.03;52.30;99529.50;4423076;32;32803;-89
2023/08/26 06:24:11;;;;;;;1.48;1.23;;;;;;;27.97;52.87;99532.97;4422749;32;34114;-88
2023/08/26 06:33:26;;;;;;;1.55;1.45;;;;;;;28.38;54.17;99531.69;4413550;32;35353;-89
2023/08/26 06:58:42;;;;;;;3.08;1.87;;;;;;;30.10;50.72;99538.94;4504676;31;185329;-86
2023/08/26 07:01:10;;;;;;;1.00;1.00;;;;;;;30.10;50.72;99538.94;4475179;31;34969;-88
2023/08/26 07:03:38;;;;;;;2.33;2.08;;;;;;;29.92;49.80;99542.16;4497998;31;33256;-87
2023/08/26 07:06:06;;;;;;;5.75;1.73;;;;;;;29.74;50.95;99542.63;4486321;31;32960;-88
2023/08/26 07:08:34;;;;;;;1.37;1.27;;;;;;;29.84;50.94;99537.69;4480881;31;32903;-87
2023/08/26 07:11:12;;;;;;;8.00;2.12;;;;;;;30.28;50.72;99546.59;4443224;32;32477;-88
2023/08/26 07:13:40;;;;;;;0.62;0.62;;;;;;;30.04;49.92;99546.00;4363114;32;33079;-88
2023/08/26 07:16:07;;;;;;;1.55;1.42;;;;;;;30.10;51.02;99545.22;4339543;32;33374;-88
2023/08/26 07:18:35;;;;;;;1.35;1.05;;;;;;;30.68;47.63;99535.91;4337960;32;33598;-88
2023/08/26 07:21:15;;;;;;;1.90;1.12;;;;;;;31.15;48.45;99531.47;4470888;31;94181;-87
2023/08/26 07:23:44;;;;;;;2.75;1.65;;;;;;;31.15;48.45;99531.47;4360785;32;31688;-88
2023/08/26 07:26:11;;;;;;;2.37;2.17;;;;;;;30.72;48.51;99532.59;4252124;33;33025;-88
2023/08/26 07:28:39;;;;;;;1.52;1.42;;;;;;;31.01;47.43;99536.06;4248207;33;34725;-87
2023/08/26 07:31:21;;;;;;;1.70;0.82;;;;;;;31.12;47.19;99532.72;4279073;33;34106;-87
2023/08/26 07:33:49;;;;;;;4.28;2.28;;;;;;;31.04;47.51;99538.34;4253649;33;34043;-88
2023/08/26 07:36:26;;;;;;;2.30;1.23;;;;;;;31.42;46.73;99535.09;4260300;33;34652;-88
2023/08/26 07:38:54;;;;;;;1.23;0.70;;;;;;;31.43;45.48;99534.03;4295921;33;33138;-87
2023/08/26 07:41:28;;;;;;;1.95;1.42;;;;;;;31.30;46.71;99534.88;4254098;33;32551;-87
2023/08/26 07:44:10;;;;;;;7.90;2.35;;;;;;;31.52;46.61;99528.16;4276358;33;32326;-88
2023/08/26 07:46:38;;;;;;;1.05;0.75;;;;;;;31.96;46.23;99523.16;4306842;33;32128;-87
2023/08/26 07:49:09;;;;;;;7.43;1.58;;;;;;;31.66;46.26;99529.00;4292942;33;33206;-88
2023/08/26 07:51:51;;;;;;;3.75;1.98;;;;;;;31.66;46.55;99525.44;4268675;33;34081;-88
2023/08/26 07:54:18;;;;;;;1.25;1.17;;;;;;;32.12;46.63;99518.06;4273907;33;31955;-87
2023/08/26 07:57:00;;;;;;;1.95;1.67;;;;;;;32.24;46.96;99520.16;4272414;33;34814;-88
2023/08/26 07:59:26;;;;;;;0.75;0.75;;;;;;;31.74;43.68;99520.59;4291008;33;32718;-87
2023/08/26 08:02:09;;;;;;;1.30;1.20;;;;;;;32.01;43.83;99521.47;4340946;32;33470;-87
2023/08/26 08:04:37;;;;;;;1.90;1.30;;;;;;;32.10;43.06;99522.06;4315709;32;32296;-88
2023/08/26 08:07:05;;;;;;;1.30;1.20;;;;;;;32.37;42.69;99515.50;4272767;33;32923;-89
2023/08/26 08:09:33;;;;;;;2.28;2.08;;;;;;;32.37;41.92;99510.03;4286922;33;33583;-89
2023/08/26 08:12:15;;;;;;;1.77;1.67;;;;;;;32.87;42.02;99518.44;4251232;33;31856;-88
2023/08/26 08:14:43;;;;;;;1.87;1.62;;;;;;;33.00;41.68;99509.38;4296069;33;32133;-89
2023/08/26 08:17:16;;;;;;;1.65;1.55;;;;;;;32.62;42.57;99509.34;4290167;33;34245;-88
2023/08/26 08:20:05;;;;;;;1.60;1.50;;;;;;;32.67;41.87;99506.78;4260518;33;34203;-88
2023/08/26 08:22:38;;;;;;;2.55;1.25;;;;;;;32.83;42.24;99503.53;4277293;33;33572;-89
2023/08/26 08:25:20;;;;;;;10.50;3.15;;;;;;;32.86;41.72;99508.56;4296795;33;34007;-88
2023/08/26 08:27:48;;;;;;;2.45;1.65;;;;;;;33.39;41.72;99502.78;4315170;33;33966;-88
2023/08/26 08:30:16;;;;;;;1.73;1.62;;;;;;;33.24;40.57;99513.22;4342450;32;32661;-88
2023/08/26 08:32:58;;;;;;;2.65;1.90;;;;;;;33.22;41.56;99511.75;4298388;33;33316;-88
2023/08/26 08:35:27;;;;;;;1.42;1.33;;;;;;;32.99;39.45;99501.34;4296919;33;32620;-89
2023/08/26 08:37:55;;;;;;;1.65;1.25;;;;;;;33.22;40.40;99504.38;4313954;33;32001;-88
2023/08/26 08:40:23;;;;;;;1.83;1.73;;;;;;;33.41;39.98;99498.97;4327473;32;33339;-88
2023/08/26 08:42:52;;;;;;;2.72;1.87;;;;;;;33.18;40.24;99505.84;4292759;33;33752;-89
2023/08/26 08:45:35;;;;;;;1.35;1.15;;;;;;;33.29;40.79;99505.16;4240858;33;34512;-88
2023/08/26 08:48:17;;;;;;;2.37;1.90;;;;;;;33.74;40.59;99490.50;4258833;33;31548;-89
2023/08/26 08:50:46;;;;;;;5.22;3.17;;;;;;;33.67;40.33;99490.56;4284896;33;34588;-89
2023/08/26 08:53:17;;;;;;;1.80;1.70;;;;;;;34.14;39.69;99491.81;4267620;33;32948;-88
2023/08/26 08:55:45;;;;;;;1.37;1.27;;;;;;;34.37;39.18;99488.38;4250320;33;33827;-88
2023/08/26 08:58:13;;;;;;;1.62;1.52;;;;;;;34.12;40.06;99490.34;4265377;32;33075;-89
2023/08/26 09:00:41;;;;;;;1.37;1.27;;;;;;;34.42;39.87;99487.66;4353744;32;33198;-88
2023/08/26 09:03:18;;;;;;;1.55;1.37;;;;;;;34.30;40.15;99475.81;4353880;32;33056;-89
2023/08/26 09:18:23;;;;;;;1.85;1.75;;;;;;;35.52;37.16;99465.47;3537602;32;29285207;-87
2023/08/26 09:24:41;;;;;;;5.62;1.98;;;;;;;35.34;38.07;99466.38;4381999;32;33968;-87
2023/08/26 09:27:08;;;;;;;1.80;1.70;;;;;;;35.22;37.56;99457.25;4426448;32;32775;-86
2023/08/26 09:29:38;;;;;;;3.40;2.47;;;;;;;35.06;38.67;99455.22;4433990;32;32934;-87
2023/08/26 09:32:06;;;;;;;1.65;1.05;;;;;;;34.87;38.92;99451.66;4432425;32;32577;-87
2023/08/26 09:34:33;;;;;;;2.08;1.98;;;;;;;35.26;38.21;99452.97;4444302;32;35994;-87
2023/08/26 09:37:03;;;;;;;3.60;3.25;;;;;;;35.58;37.64;99449.94;4433481;32;34917;-87
2023/08/26 09:39:31;;;;;;;6.62;3.03;;;;;;;35.66;37.09;99449.59;4434193;32;32645;-88
2023/08/26 09:42:00;;;;;;;3.12;2.33;;;;;;;35.93;36.29;99444.41;4432593;32;32647;-87
2023/08/26 09:44:28;;;;;;;9.05;4.05;;;;;;;35.63;37.08;99452.81;4430127;32;33213;-87
2023/08/26 09:46:59;;;;;;;4.35;2.87;;;;;;;36.05;35.78;99447.19;4443113;32;33981;-87
2023/08/26 09:49:27;;;;;;;2.17;2.08;;;;;;;35.83;35.96;99450.53;4431526;32;32689;-87
2023/08/26 09:51:54;;;;;;;1.65;1.55;;;;;;;35.79;35.96;99452.06;4420538;32;31515;-87
2023/08/26 09:54:22;;;;;;;4.50;2.75;;;;;;;36.08;36.30;99443.94;4437335;32;32650;-87
2023/08/26 09:56:50;;;;;;;3.47;1.45;;;;;;;36.13;35.50;99444.06;4426511;32;33287;-87
2023/08/26 09:59:18;;;;;;;2.42;2.22;;;;;;;35.88;35.11;99445.13;4436822;32;35089;-87
2023/08/26 10:01:46;;;;;;;3.72;3.42;;;;;;;36.31;35.12;99437.56;4441268;32;32329;-87
2023/08/26 10:04:22;;;;;;;4.05;2.67;;;;;;;36.23;35.81;99435.22;4425773;32;32897;-87
2023/08/26 10:06:57;;;;;;;2.72;2.53;;;;;;;36.50;35.00;99438.25;4431593;32;33962;-87
2023/08/26 10:09:52;;;;;;;2.30;1.77;;;;;;;36.24;33.25;99429.47;4431857;32;32600;-87
2023/08/26 10:12:21;;;;;;;5.15;2.15;;;;;;;36.46;33.66;99434.31;4422491;32;32585;-87
2023/08/26 10:14:51;;;;;;;4.55;2.95;;;;;;;36.47;34.05;99430.50;4425608;32;33180;-87
2023/08/26 10:17:20;;;;;;;2.58;2.35;;;;;;;36.80;33.71;99429.75;4422621;32;32732;-87
2023/08/26 10:19:48;;;;;;;2.62;2.42;;;;;;;36.88;33.39;99419.16;4438544;32;33757;-87
2023/08/26 10:22:30;;;;;;;3.67;2.05;;;;;;;36.71;33.65;99418.31;4419142;32;32638;-87
2023/08/26 10:25:13;;;;;;;2.35;2.08;;;;;;;36.56;32.95;99413.38;4426945;32;33312;-88
2023/08/26 10:28:44;;;;;;;4.57;2.33;;;;;;;36.73;32.94;99413.38;4412260;32;32955;-89
2023/08/26 10:33:02;;;;;;;;;;;;;;;;;;;;;
2023/08/26 10:39:30;;;;;;;3.87;2.10;;;;;;;36.91;31.70;99396.69;4339772;32;32852;-89
2023/08/26 10:42:21;;;;;;;7.25;2.47;;;;;;;37.51;31.22;99384.19;4333780;32;32675;-90
2023/08/26 10:45:43;;;;;;;1.95;1.60;;;;;;;37.92;30.93;99388.34;4354002;32;32935;-90
2023/08/26 10:49:08;;;;;;;2.15;1.92;;;;;;;38.10;31.05;99384.44;4356298;32;32285;-89
2023/08/26 10:53:02;;;;;;;;;;;;;;;;;;;;;
2023/08/26 10:56:19;;;;;;;2.80;2.30;;;;;;;37.91;29.96;99383.94;4364405;32;34432;-89
2023/08/26 10:59:40;;;;;;;5.45;2.75;;;;;;;38.21;29.25;99379.88;4393999;32;33023;-90
2023/08/26 11:02:17;;;;;;;4.78;2.28;;;;;;;38.14;29.34;99368.22;4361336;32;34586;-90
2023/08/26 11:04:55;;;;;;;15.98;3.30;;;;;;;38.14;29.71;99369.06;4327290;32;33969;-89
2023/08/26 11:07:23;;;;;;;2.05;1.30;;;;;;;37.72;29.30;99377.03;4275130;32;33124;-89
2023/08/26 11:09:53;;;;;;;1.98;1.87;;;;;;;37.90;29.70;99374.00;4240984;33;33158;-90
2023/08/26 11:12:33;;;;;;;2.10;1.67;;;;;;;38.97;28.23;99351.44;4438017;31;146492;-89
2023/08/26 11:15:05;;;;;;;1.33;1.30;;;;;;;38.97;28.23;99351.44;4312842;32;34075;-90
2023/08/26 11:17:44;;;;;;;2.72;2.15;;;;;;;38.41;28.25;99362.75;4226793;33;33227;-89
2023/08/26 11:20:18;;;;;;;2.00;1.33;;;;;;;38.58;28.95;99357.12;4134864;33;33128;-89
2023/08/26 11:22:54;;;;;;;5.80;1.42;;;;;;;38.72;28.64;99352.84;4472849;31;278940;-89
2023/08/26 11:25:26;;;;;;;2.28;2.05;;;;;;;38.57;28.04;99352.72;4356000;32;32846;-89
2023/08/26 11:28:08;;;;;;;2.42;1.48;;;;;;;38.93;28.10;99359.41;4263587;33;33386;-89
2023/08/26 11:31:06;;;;;;;15.25;1.87;;;;;;;39.05;27.02;99354.53;4466756;31;93705;-89
2023/08/26 11:33:34;;;;;;;0.77;0.77;;;;;;;39.05;27.02;99354.53;4313715;32;33949;-88
2023/08/26 11:36:04;;;;;;;13.05;1.85;;;;;;;38.15;27.42;99343.16;4275355;32;33213;-89
2023/08/26 11:39:02;;;;;;;1.67;1.58;;;;;;;38.37;28.18;99336.81;4133538;33;33583;-89
2023/08/26 11:43:26;;;;;;;2.03;1.67;;;;;;;38.20;27.91;99339.63;4448416;31;190497;-88
2023/08/26 11:45:55;;;;;;;1.67;1.50;;;;;;;38.20;27.91;99327.75;4330287;32;34250;-89
2023/08/26 11:48:24;;;;;;;2.33;1.58;;;;;;;38.41;28.03;99327.75;4189424;33;32294;-88
2023/08/26 11:51:44;;;;;;;1.58;1.48;;;;;;;39.17;28.17;99326.75;4453632;31;104352;-89
2023/08/26 11:55:59;;;;;;;3.58;2.28;;;;;;;39.30;27.69;99325.47;4469281;31;99608;-89
2023/08/26 11:58:27;;;;;;;0.80;0.70;;;;;;;39.30;27.69;99325.47;4378922;32;33946;-89
2023/08/26 12:02:20;;;;;;;2.10;1.70;;;;;;;39.51;26.75;99304.34;4437015;31;94272;-89
2023/08/26 12:04:54;;;;;;;3.03;1.27;;;;;;;39.51;26.75;99304.34;4378113;32;33681;-89
2023/08/26 12:07:24;;;;;;;2.00;1.73;;;;;;;39.14;27.16;99316.25;4343438;32;33063;-89
2023/08/26 12:09:52;;;;;;;1.58;1.48;;;;;;;39.04;26.48;99316.16;4355652;32;33949;-89
2023/08/26 12:12:20;;;;;;;2.72;1.73;;;;;;;38.54;27.23;99314.63;4383699;32;32310;-89
2023/08/26 12:14:48;;;;;;;2.78;1.70;;;;;;;39.00;28.09;99307.59;4343066;32;31736;-89
2023/08/26 12:17:16;;;;;;;2.30;2.05;;;;;;;39.39;27.04;99313.66;4367002;32;32950;-90
2023/08/26 12:19:44;;;;;;;2.35;2.05;;;;;;;39.17;28.08;99308.25;4348941;32;32549;-89
2023/08/26 12:22:11;;;;;;;3.17;1.83;;;;;;;39.43;26.73;99309.25;4377726;32;33909;-89
2023/08/26 12:24:39;;;;;;;2.47;1.45;;;;;;;39.12;26.77;99302.72;4390524;32;32982;-89
2023/08/26 12:27:08;;;;;;;6.07;1.48;;;;;;;39.08;27.18;99311.78;4365178;32;33955;-88
2023/08/26 12:29:49;;;;;;;1.30;1.10;;;;;;;39.85;25.99;99310.31;4498037;31;200236;-89
2023/08/26 12:32:17;;;;;;;1.85;1.55;;;;;;;39.85;25.99;99310.31;4453446;32;33626;-89
2023/08/26 12:34:45;;;;;;;2.40;1.77;;;;;;;39.07;26.97;99315.63;4449364;32;34695;-89
2023/08/26 12:37:13;;;;;;;1.42;1.33;;;;;;;39.12;27.20;99313.75;4440702;32;33182;-90
2023/08/26 12:39:42;;;;;;;1.90;1.23;;;;;;;39.43;26.42;99313.97;4437953;32;34316;-89
2023/08/26 12:42:17;;;;;;;10.95;2.10;;;;;;;38.65;27.04;99319.97;4425748;32;32306;-89
2023/08/26 12:44:46;;;;;;;1.55;1.10;;;;;;;38.80;27.42;99313.78;4421036;32;33572;-89
2023/08/26 12:47:15;;;;;;;3.40;2.25;;;;;;;38.73;27.18;99307.59;4421507;32;33121;-89
2023/08/26 12:49:42;;;;;;;1.83;1.55;;;;;;;38.78;27.40;99307.69;4424846;32;33083;-89
2023/08/26 12:52:16;;;;;;;1.55;1.45;;;;;;;38.60;27.57;99302.53;4480219;31;102847;-89
2023/08/26 12:54:44;;;;;;;1.60;1.50;;;;;;;38.60;27.57;99302.53;4426648;32;33072;-88
2023/08/26 12:57:11;;;;;;;1.20;1.10;;;;;;;38.08;27.83;99300.34;4377936;32;33456;-89
2023/08/26 12:59:39;;;;;;;1.45;1.35;;;;;;;37.92;27.72;99300.16;4356631;32;33731;-88
2023/08/26 13:02:18;;;;;;;2.17;1.55;;;;;;;38.61;27.71;99293.19;4463873;31;94925;-88
2023/08/26 13:04:47;;;;;;;2.12;1.90;;;;;;;38.61;27.71;99293.19;4337393;32;33219;-88